Laura, Ohio
Current Conditions -  °F | °C
As of 6:56 AM on Saturday 25 Oct 2014 (Local Time) from KDAY Reporting Station
Scattered Clouds Scattered Clouds  
Wind Chill: 51°   Ceiling: Unl
Heat Index: 51°   Visibility: 8mi
Dew Point: 47°   Wind: 10mph
Humidity: 86%   Direction: 190°S
Pressure: 29.97"   Gusts: NA
Location:  39.99°N, 84.41°W
Report Text: KDAY 251056Z 19009KT 8SM SCT100 11/08 A2997 RMK AO2 SLP148 T01060083
Loading
Personal Weather Stations






























Interactive Weather Map
Tropical Storm Tracking
New forecast layout! Learn more

10-Day Weather Forecast

Advertisements
Track Severe Weather on mobile